createdAt,value
2022-07-25T00:00:11.072Z,1.80
2022-07-25T00:02:58.959Z,2.30
2022-07-25T00:05:27.794Z,2.50
2022-07-25T00:07:55.673Z,2.00
2022-07-25T00:10:24.421Z,2.30
2022-07-25T00:12:52.720Z,1.90
2022-07-25T00:15:20.827Z,2.30
2022-07-25T00:17:49.092Z,2.50
2022-07-25T00:20:17.250Z,2.20
2022-07-25T00:22:45.155Z,2.40
2022-07-25T00:25:13.172Z,2.80
2022-07-25T00:27:41.382Z,2.00
2022-07-25T00:30:09.956Z,2.50
2022-07-25T00:32:37.836Z,2.60
2022-07-25T00:35:06.123Z,2.50
2022-07-25T00:37:33.932Z,2.30
2022-07-25T00:40:02.039Z,2.70
2022-07-25T00:42:30.582Z,2.80
2022-07-25T00:45:00.242Z,2.60
2022-07-25T00:47:28.113Z,2.00
2022-07-25T00:49:56.428Z,2.60
2022-07-25T00:52:24.857Z,2.20
2022-07-25T00:54:52.853Z,2.50
2022-07-25T00:57:20.832Z,2.70
2022-07-25T00:59:48.891Z,2.20
2022-07-25T01:02:17.070Z,2.40
2022-07-25T01:04:45.518Z,2.60
2022-07-25T01:07:14.289Z,2.30
2022-07-25T01:09:42.462Z,2.30
2022-07-25T01:12:10.522Z,2.50
2022-07-25T01:14:39.572Z,2.20
2022-07-25T01:17:07.536Z,1.90
2022-07-25T01:19:35.686Z,2.50
2022-07-25T01:22:03.736Z,2.50
2022-07-25T01:24:31.806Z,1.90
2022-07-25T01:27:00.009Z,1.80
2022-07-25T01:29:27.862Z,2.20
2022-07-25T01:31:55.738Z,2.00
2022-07-25T01:34:24.406Z,1.80
2022-07-25T01:36:52.233Z,1.90
2022-07-25T01:39:20.244Z,2.70
2022-07-25T01:41:48.413Z,2.10
2022-07-25T01:44:17.367Z,1.90
2022-07-25T01:46:45.231Z,2.50
2022-07-25T01:49:13.773Z,2.20
2022-07-25T01:51:41.804Z,2.20
2022-07-25T01:54:10.583Z,2.20
2022-07-25T01:56:44.975Z,2.20
2022-07-25T01:59:15.037Z,2.10
2022-07-25T02:01:43.754Z,2.10
2022-07-25T02:04:12.346Z,2.40
2022-07-25T02:06:41.607Z,2.80
2022-07-25T02:09:09.943Z,2.30
2022-07-25T02:11:38.098Z,2.40
2022-07-25T02:14:06.208Z,2.30
2022-07-25T02:16:34.560Z,2.30
2022-07-25T02:19:04.174Z,2.20
2022-07-25T02:21:32.111Z,2.30
2022-07-25T02:24:00.085Z,2.60
2022-07-25T02:26:27.871Z,2.10
2022-07-25T02:28:55.695Z,2.00
2022-07-25T02:31:23.960Z,2.50
2022-07-25T02:33:51.835Z,2.50
2022-07-25T02:36:19.704Z,2.70
2022-07-25T02:38:47.728Z,2.80
2022-07-25T02:41:15.844Z,3.20
2022-07-25T02:43:43.603Z,3.20
2022-07-25T02:46:11.585Z,2.90
2022-07-25T02:48:39.668Z,3.20
2022-07-25T02:51:07.432Z,3.60
2022-07-25T02:53:55.914Z,4.00
2022-07-25T02:56:23.196Z,3.50
2022-07-25T02:58:51.543Z,3.70
2022-07-25T03:01:19.436Z,3.90
2022-07-25T03:03:47.507Z,3.60
2022-07-25T03:06:15.922Z,3.40
2022-07-25T03:08:43.712Z,3.70
2022-07-25T03:11:12.605Z,3.60
2022-07-25T03:13:40.781Z,3.80
2022-07-25T03:16:09.859Z,4.20
2022-07-25T03:18:37.725Z,3.90
2022-07-25T03:21:05.918Z,4.40
2022-07-25T03:23:33.699Z,4.40
2022-07-25T03:26:01.758Z,4.00
2022-07-25T03:28:29.632Z,4.00
2022-07-25T03:30:57.447Z,3.90
2022-07-25T03:33:25.438Z,4.30
2022-07-25T03:35:53.369Z,3.80
2022-07-25T03:38:21.104Z,3.60
2022-07-25T03:40:49.200Z,4.50
2022-07-25T03:43:17.234Z,3.80
2022-07-25T03:45:45.139Z,4.40
2022-07-25T03:48:13.203Z,4.60
2022-07-25T03:50:41.206Z,4.50
2022-07-25T03:53:10.327Z,4.60
2022-07-25T03:55:40.025Z,4.10
2022-07-25T03:58:08.165Z,4.80
2022-07-25T04:00:35.886Z,4.40
2022-07-25T04:03:03.820Z,4.70
2022-07-25T04:05:31.791Z,4.70
2022-07-25T04:07:59.567Z,4.60
2022-07-25T04:10:27.582Z,5.50
2022-07-25T04:12:56.017Z,5.70
2022-07-25T04:15:23.988Z,5.40
2022-07-25T04:17:51.846Z,5.50
2022-07-25T04:20:19.975Z,6.10
2022-07-25T04:22:48.027Z,7.00
2022-07-25T04:25:16.271Z,5.80
2022-07-25T04:27:44.633Z,5.70
2022-07-25T04:30:12.756Z,5.80
2022-07-25T04:32:52.377Z,4.90
2022-07-25T04:35:20.393Z,5.10
2022-07-25T04:37:48.590Z,5.30
2022-07-25T04:40:16.855Z,5.30
2022-07-25T04:42:44.749Z,4.60
2022-07-25T04:45:13.951Z,5.50
2022-07-25T04:47:46.232Z,4.10
2022-07-25T04:50:14.381Z,4.50
2022-07-25T04:52:42.623Z,4.60
2022-07-25T04:55:11.427Z,4.10
2022-07-25T04:57:39.470Z,3.70
2022-07-25T05:00:09.583Z,3.90
2022-07-25T05:02:38.273Z,3.70
2022-07-25T05:05:07.183Z,3.50
2022-07-25T05:07:36.655Z,3.90
2022-07-25T05:10:08.310Z,3.60
2022-07-25T05:12:36.246Z,3.90
2022-07-25T05:15:05.362Z,3.60
2022-07-25T05:17:33.242Z,3.20
2022-07-25T05:20:01.235Z,3.70
2022-07-25T05:22:29.234Z,3.60
2022-07-25T05:24:57.261Z,2.80
2022-07-25T05:27:25.174Z,3.10
2022-07-25T05:29:53.010Z,2.80
2022-07-25T05:32:21.038Z,2.50
2022-07-25T05:34:48.805Z,2.70
2022-07-25T05:37:16.904Z,2.70
2022-07-25T05:39:44.802Z,2.00
2022-07-25T05:42:12.602Z,2.20
2022-07-25T05:44:40.584Z,1.80
2022-07-25T05:47:12.904Z,1.80
2022-07-25T05:49:40.808Z,1.60
2022-07-25T05:52:12.942Z,2.10
2022-07-25T05:54:41.921Z,1.90
2022-07-25T05:57:09.691Z,2.30
2022-07-25T05:59:37.680Z,2.10
2022-07-25T06:02:05.814Z,2.20
2022-07-25T06:04:34.094Z,1.70
2022-07-25T06:07:02.015Z,2.20
2022-07-25T06:09:32.071Z,2.00
2022-07-25T06:12:01.347Z,2.50
2022-07-25T06:14:30.400Z,2.00
2022-07-25T06:16:58.552Z,1.70
2022-07-25T06:19:26.684Z,1.70
2022-07-25T06:21:54.633Z,2.00
2022-07-25T06:24:22.596Z,1.60
2022-07-25T06:26:50.400Z,1.50
2022-07-25T06:29:18.224Z,1.60
2022-07-25T06:31:46.820Z,1.30
2022-07-25T06:34:15.320Z,1.50
2022-07-25T06:36:43.220Z,1.20
2022-07-25T06:39:11.538Z,1.20
2022-07-25T06:41:39.366Z,1.60
2022-07-25T06:44:07.880Z,1.70
2022-07-25T06:46:36.519Z,1.30
2022-07-25T06:49:04.463Z,1.20
2022-07-25T06:51:32.665Z,1.10
2022-07-25T06:54:00.867Z,0.90
2022-07-25T06:56:31.624Z,1.30
2022-07-25T06:59:00.511Z,1.70
2022-07-25T07:01:29.466Z,1.50
2022-07-25T07:03:57.326Z,1.40
2022-07-25T07:06:25.209Z,1.60
2022-07-25T07:08:53.225Z,1.40
2022-07-25T07:11:21.198Z,1.30
2022-07-25T07:13:49.271Z,1.30
2022-07-25T07:16:17.371Z,0.80
2022-07-25T07:18:49.116Z,1.20
2022-07-25T07:21:21.437Z,1.40
2022-07-25T07:23:53.395Z,1.20
2022-07-25T07:26:22.107Z,1.10
2022-07-25T07:28:50.482Z,1.30
2022-07-25T07:31:18.654Z,1.30
2022-07-25T07:33:46.991Z,1.20
2022-07-25T07:36:15.415Z,1.10
2022-07-25T07:38:44.684Z,1.20
2022-07-25T07:41:12.923Z,1.00
2022-07-25T07:43:41.864Z,0.90
2022-07-25T07:46:10.343Z,1.20
2022-07-25T07:48:38.484Z,1.50
2022-07-25T07:51:06.968Z,1.00
2022-07-25T07:53:53.623Z,1.20
2022-07-25T07:56:21.709Z,1.40
2022-07-25T07:58:49.544Z,1.20
2022-07-25T08:01:17.405Z,1.40
2022-07-25T08:03:45.747Z,1.20
2022-07-25T08:06:13.637Z,1.30
2022-07-25T08:08:41.399Z,1.10
2022-07-25T08:11:09.652Z,1.00
2022-07-25T08:13:38.345Z,0.80
2022-07-25T08:16:07.077Z,1.10
2022-07-25T08:18:35.298Z,0.90
2022-07-25T08:21:06.274Z,1.10
2022-07-25T08:23:35.614Z,1.30
2022-07-25T08:26:04.727Z,1.20
2022-07-25T08:28:32.579Z,0.90
2022-07-25T08:31:00.706Z,1.10
2022-07-25T08:33:28.897Z,1.20
2022-07-25T08:35:58.950Z,0.80
2022-07-25T08:38:28.918Z,1.20
2022-07-25T08:40:58.185Z,1.20
2022-07-25T08:43:25.995Z,1.00
2022-07-25T08:45:55.424Z,0.80
2022-07-25T08:48:26.551Z,1.00
2022-07-25T08:50:57.528Z,1.40
2022-07-25T08:53:34.929Z,1.10
2022-07-25T08:56:14.776Z,1.10
2022-07-25T08:58:44.700Z,1.10
2022-07-25T09:01:13.676Z,1.60
2022-07-25T09:03:44.736Z,0.70
2022-07-25T09:06:21.609Z,1.50
2022-07-25T09:08:57.751Z,1.50
2022-07-25T09:11:30.382Z,1.10
2022-07-25T09:14:08.547Z,1.30
2022-07-25T09:16:43.287Z,1.30
2022-07-25T09:19:19.544Z,1.30
2022-07-25T09:22:07.018Z,1.20
2022-07-25T09:24:45.800Z,1.10
2022-07-25T09:27:15.258Z,1.10
2022-07-25T09:29:43.294Z,1.30
2022-07-25T09:32:29.591Z,1.20
2022-07-25T09:34:57.582Z,1.20
2022-07-25T09:37:27.281Z,1.10
2022-07-25T09:39:55.293Z,1.30
2022-07-25T09:42:29.276Z,1.20
2022-07-25T09:45:11.504Z,1.30
2022-07-25T09:47:57.655Z,1.60
2022-07-25T09:50:27.988Z,1.10
2022-07-25T09:53:11.952Z,1.50
2022-07-25T09:55:40.975Z,1.30
2022-07-25T09:58:09.402Z,1.50
2022-07-25T10:00:40.935Z,1.50
2022-07-25T10:03:20.542Z,1.60
2022-07-25T10:06:09.843Z,1.60
2022-07-25T10:08:39.272Z,2.20
2022-07-25T10:11:19.401Z,1.60
2022-07-25T10:13:47.571Z,1.80
2022-07-25T10:16:24.529Z,1.70
2022-07-25T10:18:58.885Z,1.50
2022-07-25T10:21:28.751Z,2.40
2022-07-25T10:24:05.270Z,1.00
2022-07-25T10:26:38.187Z,1.20
2022-07-25T10:29:11.290Z,1.70
2022-07-25T10:31:50.576Z,1.50
2022-07-25T10:34:31.595Z,1.60
2022-07-25T10:37:13.096Z,1.40
2022-07-25T10:39:44.926Z,1.50
2022-07-25T10:42:18.069Z,1.20
2022-07-25T10:44:53.812Z,1.30
2022-07-25T10:47:24.290Z,1.60
2022-07-25T10:52:59.944Z,1.40
2022-07-25T10:55:29.205Z,1.70
2022-07-25T10:58:22.190Z,1.00
2022-07-25T11:00:51.690Z,1.40
2022-07-25T11:03:20.873Z,1.50
2022-07-25T11:05:49.784Z,1.50
2022-07-25T11:08:22.472Z,1.40
2022-07-25T11:10:52.693Z,1.80
2022-07-25T11:13:20.954Z,1.70
2022-07-25T11:15:49.549Z,1.10
2022-07-25T11:18:18.696Z,1.30
2022-07-25T11:20:47.511Z,1.60
2022-07-25T11:23:22.226Z,1.50
2022-07-25T11:25:51.660Z,1.40
2022-07-25T11:28:19.552Z,1.50
2022-07-25T11:30:47.697Z,1.30
2022-07-25T11:33:17.723Z,1.00
2022-07-25T11:35:46.253Z,1.30
2022-07-25T11:38:15.033Z,1.50
2022-07-25T11:40:44.276Z,1.30
2022-07-25T11:43:21.042Z,1.10
2022-07-25T11:46:04.388Z,1.20
2022-07-25T11:48:33.687Z,1.10
2022-07-25T11:51:19.558Z,1.50
2022-07-25T11:53:50.034Z,1.30
2022-07-25T11:59:12.288Z,1.60
2022-07-25T12:01:42.928Z,1.00
2022-07-25T12:04:20.019Z,1.20
2022-07-25T12:06:50.561Z,1.30
2022-07-25T12:09:21.408Z,1.40
2022-07-25T12:11:49.785Z,1.20
2022-07-25T12:14:18.072Z,1.40
2022-07-25T12:16:46.943Z,1.10
2022-07-25T12:19:20.450Z,1.20
2022-07-25T12:21:48.377Z,1.30
2022-07-25T12:24:16.324Z,1.10
2022-07-25T12:26:44.296Z,1.00
2022-07-25T12:29:12.474Z,1.60
2022-07-25T12:31:40.390Z,1.00
2022-07-25T12:34:08.455Z,1.20
2022-07-25T12:36:41.354Z,1.40
2022-07-25T12:39:10.038Z,1.00
2022-07-25T12:41:40.194Z,1.20
2022-07-25T12:44:08.049Z,1.20
2022-07-25T12:46:36.205Z,1.50
2022-07-25T12:49:04.582Z,1.20
2022-07-25T12:51:32.613Z,1.00
2022-07-25T12:54:00.484Z,1.00
2022-07-25T12:56:28.412Z,1.40
2022-07-25T12:58:56.357Z,1.50
2022-07-25T13:01:24.290Z,1.40
2022-07-25T13:03:52.257Z,1.50
2022-07-25T13:06:20.994Z,1.10
2022-07-25T13:08:48.984Z,1.10
2022-07-25T13:11:16.897Z,1.10
2022-07-25T13:13:44.810Z,1.30
2022-07-25T13:16:13.941Z,0.90
2022-07-25T13:18:42.835Z,1.20
2022-07-25T13:21:11.402Z,1.20
2022-07-25T13:23:40.132Z,0.90
2022-07-25T13:26:08.860Z,1.00
2022-07-25T13:28:36.794Z,1.60
2022-07-25T13:31:09.880Z,1.40
2022-07-25T13:33:38.403Z,1.60
2022-07-25T13:36:06.647Z,1.00
2022-07-25T13:38:35.025Z,1.50
2022-07-25T13:41:02.971Z,1.30
2022-07-25T13:43:30.923Z,1.50
2022-07-25T13:45:58.940Z,1.30
2022-07-25T13:48:29.818Z,1.50
2022-07-25T13:50:59.109Z,1.30
2022-07-25T13:53:30.314Z,1.30
2022-07-25T13:55:59.536Z,1.40
2022-07-25T13:58:28.238Z,1.40
2022-07-25T14:00:56.178Z,1.40
2022-07-25T14:03:24.082Z,1.70
2022-07-25T14:05:52.412Z,1.20
2022-07-25T14:08:20.317Z,1.30
2022-07-25T14:10:48.168Z,1.10
2022-07-25T14:13:16.373Z,1.30
2022-07-25T14:15:45.119Z,1.50
2022-07-25T14:18:13.002Z,1.40
2022-07-25T14:20:41.321Z,1.50
2022-07-25T14:23:09.150Z,1.50
2022-07-25T14:25:38.185Z,1.40
2022-07-25T14:28:06.523Z,1.30
2022-07-25T14:30:34.415Z,1.70
2022-07-25T14:33:02.359Z,1.50
2022-07-25T14:35:32.819Z,1.40
2022-07-25T14:38:01.359Z,1.20
2022-07-25T14:40:29.396Z,1.20
2022-07-25T14:42:58.108Z,1.10
2022-07-25T14:45:26.173Z,1.50
2022-07-25T14:47:54.211Z,1.50
2022-07-25T14:50:23.658Z,1.40
2022-07-25T14:52:51.482Z,1.40
2022-07-25T14:55:21.082Z,1.50
2022-07-25T14:57:49.335Z,1.30
2022-07-25T15:00:18.124Z,1.80
2022-07-25T15:02:46.091Z,1.10
2022-07-25T15:05:14.227Z,1.40
2022-07-25T15:07:42.127Z,1.60
2022-07-25T15:10:10.084Z,1.50
2022-07-25T15:12:39.368Z,1.40
2022-07-25T15:15:07.562Z,1.20
2022-07-25T15:17:35.686Z,1.10
2022-07-25T15:20:04.375Z,1.20
2022-07-25T15:22:32.597Z,1.30
2022-07-25T15:27:48.611Z,1.30
2022-07-25T15:30:16.571Z,1.30
2022-07-25T15:32:45.950Z,1.10
2022-07-25T15:35:15.562Z,1.20
2022-07-25T15:37:43.745Z,1.10
2022-07-25T15:40:12.862Z,1.20
2022-07-25T15:42:41.999Z,1.30
2022-07-25T15:48:00.473Z,1.10
2022-07-25T15:50:28.382Z,1.20
2022-07-25T15:52:56.208Z,1.20
2022-07-25T15:55:24.638Z,1.40
2022-07-25T15:57:53.814Z,1.40
2022-07-25T16:00:24.837Z,1.00
2022-07-25T16:02:58.450Z,0.90
2022-07-25T16:05:26.689Z,1.40
2022-07-25T16:07:54.639Z,1.20
2022-07-25T16:10:23.508Z,0.90
2022-07-25T16:12:51.480Z,0.80
2022-07-25T16:15:28.961Z,1.00
2022-07-25T16:18:02.099Z,0.90
2022-07-25T16:20:32.217Z,1.00
2022-07-25T16:23:00.824Z,0.90
2022-07-25T16:25:30.769Z,0.90
2022-07-25T16:27:59.804Z,0.70
2022-07-25T16:30:30.653Z,0.90
2022-07-25T16:32:58.734Z,0.70
2022-07-25T16:35:26.853Z,0.90
2022-07-25T16:37:54.913Z,0.80
2022-07-25T16:40:28.681Z,1.30
2022-07-25T16:42:59.757Z,0.80
2022-07-25T16:45:30.765Z,0.90
2022-07-25T16:47:58.550Z,0.90
2022-07-25T16:50:26.843Z,1.10
2022-07-25T16:52:54.995Z,1.00
2022-07-25T16:55:23.280Z,1.00
2022-07-25T16:57:51.601Z,0.90
2022-07-25T17:00:20.276Z,0.80
2022-07-25T17:02:48.204Z,1.00
2022-07-25T17:05:17.175Z,1.00
2022-07-25T17:07:45.153Z,0.80
2022-07-25T17:10:13.149Z,0.60
2022-07-25T17:12:41.544Z,0.70
2022-07-25T17:15:10.156Z,0.90
2022-07-25T17:17:38.072Z,0.80
2022-07-25T17:20:11.648Z,0.90
2022-07-25T17:22:39.675Z,0.90
2022-07-25T17:25:08.242Z,0.70
2022-07-25T17:27:37.089Z,1.20
2022-07-25T17:30:05.778Z,0.80
2022-07-25T17:32:33.977Z,0.70
2022-07-25T17:35:02.081Z,1.30
2022-07-25T17:37:30.295Z,0.70
2022-07-25T17:40:00.010Z,0.80
2022-07-25T17:42:28.671Z,0.50
2022-07-25T17:44:56.913Z,0.60
2022-07-25T17:47:25.496Z,0.70
2022-07-25T17:49:53.602Z,0.70
2022-07-25T17:52:21.857Z,0.70
2022-07-25T17:54:49.855Z,0.90
2022-07-25T17:57:17.879Z,0.70
2022-07-25T17:59:45.872Z,0.70
2022-07-25T18:02:14.325Z,0.90
2022-07-25T18:04:42.224Z,1.40
2022-07-25T18:07:10.359Z,1.10
2022-07-25T18:09:38.459Z,1.50
2022-07-25T18:12:06.544Z,1.30
2022-07-25T18:14:34.404Z,1.30
2022-07-25T18:17:03.593Z,1.50
2022-07-25T18:19:31.466Z,1.90
2022-07-25T18:21:59.589Z,1.20
2022-07-25T18:24:29.583Z,1.10
2022-07-25T18:26:59.125Z,1.20
2022-07-25T18:29:31.590Z,1.10
2022-07-25T18:31:59.835Z,1.40
2022-07-25T18:34:28.161Z,0.80
2022-07-25T18:36:56.265Z,1.40
2022-07-25T18:39:24.619Z,1.00
2022-07-25T18:41:52.564Z,0.90
2022-07-25T18:44:29.176Z,1.30
2022-07-25T18:46:57.333Z,1.10
2022-07-25T18:49:27.392Z,1.00
2022-07-25T18:51:58.054Z,1.10
2022-07-25T18:54:34.259Z,0.90
2022-07-25T18:57:03.514Z,1.40
2022-07-25T18:59:31.677Z,1.10
2022-07-25T19:01:59.725Z,1.00
2022-07-25T19:04:28.046Z,1.30
2022-07-25T19:06:56.182Z,0.90
2022-07-25T19:09:25.991Z,1.30
2022-07-25T19:11:56.770Z,1.60
2022-07-25T19:14:27.394Z,1.30
2022-07-25T19:16:55.708Z,1.50
2022-07-25T19:19:24.654Z,0.90
2022-07-25T19:21:53.350Z,1.40
2022-07-25T19:24:25.638Z,1.20
2022-07-25T19:26:53.872Z,1.40
2022-07-25T19:29:22.044Z,1.30
2022-07-25T19:31:50.002Z,1.30
2022-07-25T19:34:18.134Z,1.10
2022-07-25T19:36:46.404Z,1.60
2022-07-25T19:39:15.679Z,1.60
2022-07-25T19:41:46.883Z,2.60
2022-07-25T19:44:15.344Z,4.20
2022-07-25T19:46:43.673Z,3.70
2022-07-25T19:49:12.326Z,3.90
2022-07-25T19:51:40.425Z,3.40
2022-07-25T19:54:09.889Z,3.40
2022-07-25T19:56:38.342Z,3.60
2022-07-25T19:59:06.393Z,4.20
2022-07-25T20:01:36.192Z,3.70
2022-07-25T20:04:05.889Z,3.20
2022-07-25T20:06:35.560Z,3.20
2022-07-25T20:09:04.060Z,2.60
2022-07-25T20:11:32.986Z,2.60
2022-07-25T20:14:01.915Z,3.00
2022-07-25T20:16:30.376Z,3.50
2022-07-25T20:18:58.731Z,3.40
2022-07-25T20:21:27.251Z,2.90
2022-07-25T20:23:55.963Z,2.10
2022-07-25T20:26:24.417Z,2.60
2022-07-25T20:28:52.764Z,2.30
2022-07-25T20:31:24.486Z,2.00
2022-07-25T20:33:54.560Z,1.80
2022-07-25T20:36:22.430Z,1.90
2022-07-25T20:38:50.414Z,1.60
2022-07-25T20:41:18.987Z,1.40
2022-07-25T20:43:47.052Z,1.70
2022-07-25T20:46:15.347Z,2.20
2022-07-25T20:48:43.594Z,1.50
2022-07-25T20:51:13.170Z,1.60
2022-07-25T20:53:42.072Z,1.90
2022-07-25T20:56:10.088Z,1.80
2022-07-25T20:58:37.993Z,1.90
2022-07-25T21:01:06.179Z,1.70
2022-07-25T21:03:35.511Z,1.60
2022-07-25T21:06:03.619Z,1.60
2022-07-25T21:08:31.561Z,1.90
2022-07-25T21:10:59.744Z,1.90
2022-07-25T21:13:30.774Z,1.80
2022-07-25T21:16:01.321Z,1.50
2022-07-25T21:18:29.639Z,1.80
2022-07-25T21:20:57.564Z,1.80
2022-07-25T21:23:26.911Z,1.80
2022-07-25T21:25:55.101Z,1.70
2022-07-25T21:28:22.932Z,2.10
2022-07-25T21:30:54.904Z,2.10
2022-07-25T21:33:22.840Z,2.40
2022-07-25T21:35:53.188Z,2.70
2022-07-25T21:38:26.328Z,2.50
2022-07-25T21:40:58.595Z,2.10
2022-07-25T21:43:26.875Z,2.50
2022-07-25T21:45:54.781Z,2.60
2022-07-25T21:48:43.451Z,2.80
2022-07-25T21:51:15.195Z,2.70
2022-07-25T21:53:48.860Z,2.60
2022-07-25T21:56:17.236Z,2.50
2022-07-25T21:58:45.401Z,3.10
2022-07-25T22:01:16.849Z,2.40
2022-07-25T22:03:45.002Z,2.40
2022-07-25T22:06:13.410Z,2.60
2022-07-25T22:08:41.378Z,2.30
2022-07-25T22:11:20.881Z,2.50
2022-07-25T22:13:58.626Z,2.60
2022-07-25T22:16:27.205Z,2.20
